N32BE KGNV-KTVI
Flight info
| Callsign | N32BE |
|---|---|
| Flight time | 1h 0m |
| Altitude | 6000 |
| Route | CTY GEF |
| Aircraft | C82R/L-V/N |
Departure
| Time | 2026-04-27 22:55 |
|---|---|
| Airport | Gainesville Regional Airport (KGNV) |
Arrival
| Time | 2026-04-27 23:56 |
|---|---|
| Airport | Thomasville Regional Airport (KTVI) |
| Time | Latitude | Longitude | Altitude | Speed | Heading |
|---|---|---|---|---|---|
| 2026-04-27 22:47 | 29.69555 | -82.27698 | 144 ft | 0 kts | 318° |
| 2026-04-27 22:51 | 29.69553 | -82.27702 | 144 ft | 4 kts | 175° |
| 2026-04-27 22:51 | 29.69519 | -82.27722 | 144 ft | 8 kts | 233° |
| 2026-04-27 22:51 | 29.69464 | -82.27765 | 145 ft | 13 kts | 175° |
| 2026-04-27 22:51 | 29.69392 | -82.27834 | 146 ft | 16 kts | 239° |
| 2026-04-27 22:52 | 29.69333 | -82.27955 | 148 ft | 18 kts | 243° |
| 2026-04-27 22:52 | 29.69283 | -82.28069 | 153 ft | 12 kts | 256° |
| 2026-04-27 22:52 | 29.69280 | -82.28086 | 154 ft | 0 kts | 219° |
| 2026-04-27 22:53 | 29.69274 | -82.28093 | 154 ft | 6 kts | 220° |
| 2026-04-27 22:54 | 29.69216 | -82.28147 | 155 ft | 16 kts | 202° |
| 2026-04-27 22:54 | 29.69150 | -82.28163 | 155 ft | 1 kts | 160° |
| 2026-04-27 22:54 | 29.69117 | -82.28150 | 155 ft | 10 kts | 160° |
| 2026-04-27 22:54 | 29.69136 | -82.28028 | 154 ft | 35 kts | 62° |
| 2026-04-27 22:55 | 29.69334 | -82.27623 | 252 ft | 72 kts | 60° |
| 2026-04-27 22:55 | 29.69593 | -82.27082 | 658 ft | 75 kts | 63° |
| 2026-04-27 22:55 | 29.70006 | -82.26739 | 1194 ft | 80 kts | 340° |
| 2026-04-27 22:55 | 29.70358 | -82.27174 | 1585 ft | 78 kts | 279° |
| 2026-04-27 22:56 | 29.70210 | -82.27802 | 1903 ft | 83 kts | 242° |
| 2026-04-27 22:56 | 29.69842 | -82.28339 | 2110 ft | 92 kts | 239° |
| 2026-04-27 22:56 | 29.69487 | -82.28911 | 2458 ft | 82 kts | 241° |
| 2026-04-27 22:56 | 29.69162 | -82.29485 | 2683 ft | 90 kts | 243° |
| 2026-04-27 22:57 | 29.68866 | -82.30057 | 3030 ft | 81 kts | 256° |
| 2026-04-27 22:57 | 29.68690 | -82.30719 | 3271 ft | 82 kts | 258° |
| 2026-04-27 22:57 | 29.68541 | -82.31343 | 3483 ft | 87 kts | 261° |
| 2026-04-27 22:57 | 29.68411 | -82.32020 | 3721 ft | 86 kts | 268° |
| 2026-04-27 22:58 | 29.68327 | -82.32682 | 3956 ft | 86 kts | 268° |
| 2026-04-27 22:58 | 29.68225 | -82.33371 | 4184 ft | 87 kts | 266° |
| 2026-04-27 22:58 | 29.68088 | -82.34067 | 4378 ft | 91 kts | 261° |
| 2026-04-27 22:58 | 29.67933 | -82.34757 | 4611 ft | 89 kts | 265° |
| 2026-04-27 22:59 | 29.67833 | -82.35455 | 4838 ft | 86 kts | 272° |
| 2026-04-27 22:59 | 29.67780 | -82.36154 | 5049 ft | 88 kts | 271° |
| 2026-04-27 22:59 | 29.67759 | -82.36858 | 5250 ft | 89 kts | 278° |
| 2026-04-27 22:59 | 29.67765 | -82.37551 | 5501 ft | 86 kts | 270° |
| 2026-04-27 23:00 | 29.67580 | -82.38957 | 5849 ft | 94 kts | 267° |
| 2026-04-27 23:00 | 29.67528 | -82.39692 | 6032 ft | 95 kts | 273° |
| 2026-04-27 23:00 | 29.67440 | -82.40559 | 5989 ft | 117 kts | 263° |
| 2026-04-27 23:01 | 29.67272 | -82.41512 | 5991 ft | 125 kts | 264° |
| 2026-04-27 23:01 | 29.67102 | -82.42513 | 5998 ft | 131 kts | 263° |
| 2026-04-27 23:01 | 29.66916 | -82.43569 | 6002 ft | 137 kts | 263° |
| 2026-04-27 23:01 | 29.66754 | -82.44660 | 6004 ft | 140 kts | 266° |
| 2026-04-27 23:02 | 29.66621 | -82.45777 | 6003 ft | 141 kts | 266° |
| 2026-04-27 23:02 | 29.66489 | -82.46903 | 6000 ft | 143 kts | 268° |
| 2026-04-27 23:02 | 29.66390 | -82.48029 | 5994 ft | 144 kts | 269° |
| 2026-04-27 23:02 | 29.66295 | -82.49176 | 5995 ft | 144 kts | 269° |
| 2026-04-27 23:03 | 29.66200 | -82.50318 | 5991 ft | 143 kts | 269° |
| 2026-04-27 23:03 | 29.66101 | -82.51457 | 5992 ft | 143 kts | 269° |
| 2026-04-27 23:03 | 29.66008 | -82.52596 | 5991 ft | 143 kts | 269° |
| 2026-04-27 23:03 | 29.65906 | -82.53734 | 5989 ft | 143 kts | 268° |
| 2026-04-27 23:04 | 29.65807 | -82.54879 | 5987 ft | 144 kts | 269° |
| 2026-04-27 23:04 | 29.65709 | -82.56024 | 5983 ft | 144 kts | 269° |
| 2026-04-27 23:04 | 29.65610 | -82.57168 | 5991 ft | 144 kts | 269° |
| 2026-04-27 23:04 | 29.65512 | -82.58309 | 5990 ft | 146 kts | 269° |
| 2026-04-27 23:05 | 29.65411 | -82.59474 | 5987 ft | 146 kts | 268° |
| 2026-04-27 23:05 | 29.65288 | -82.60632 | 5984 ft | 146 kts | 266° |
| 2026-04-27 23:05 | 29.65150 | -82.61790 | 5984 ft | 146 kts | 266° |
| 2026-04-27 23:05 | 29.65008 | -82.62945 | 5981 ft | 146 kts | 266° |
| 2026-04-27 23:06 | 29.64864 | -82.64095 | 5978 ft | 145 kts | 266° |
| 2026-04-27 23:06 | 29.64724 | -82.65248 | 5973 ft | 145 kts | 266° |
| 2026-04-27 23:06 | 29.64584 | -82.66394 | 5978 ft | 145 kts | 266° |
| 2026-04-27 23:06 | 29.64448 | -82.67538 | 5972 ft | 144 kts | 267° |
| 2026-04-27 23:07 | 29.64308 | -82.68686 | 5976 ft | 145 kts | 267° |
| 2026-04-27 23:07 | 29.64155 | -82.69837 | 5967 ft | 146 kts | 265° |
| 2026-04-27 23:07 | 29.63982 | -82.70991 | 5969 ft | 147 kts | 265° |
| 2026-04-27 23:07 | 29.63806 | -82.72132 | 5964 ft | 146 kts | 264° |
| 2026-04-27 23:08 | 29.63629 | -82.73284 | 5967 ft | 147 kts | 265° |
| 2026-04-27 23:08 | 29.63445 | -82.74443 | 5963 ft | 147 kts | 264° |
| 2026-04-27 23:08 | 29.63281 | -82.75599 | 5962 ft | 146 kts | 266° |
| 2026-04-27 23:08 | 29.63116 | -82.76753 | 5960 ft | 146 kts | 265° |
| 2026-04-27 23:09 | 29.62964 | -82.77908 | 5961 ft | 146 kts | 266° |
| 2026-04-27 23:09 | 29.62822 | -82.79067 | 5961 ft | 147 kts | 266° |
| 2026-04-27 23:09 | 29.62689 | -82.80239 | 5958 ft | 148 kts | 268° |
| 2026-04-27 23:09 | 29.62566 | -82.81415 | 5957 ft | 148 kts | 268° |
| 2026-04-27 23:10 | 29.62452 | -82.82592 | 5959 ft | 149 kts | 269° |
| 2026-04-27 23:10 | 29.62343 | -82.83773 | 5959 ft | 149 kts | 269° |
| 2026-04-27 23:10 | 29.62236 | -82.84938 | 5953 ft | 148 kts | 269° |
| 2026-04-27 23:10 | 29.62124 | -82.86114 | 5954 ft | 148 kts | 269° |
| 2026-04-27 23:11 | 29.62016 | -82.87287 | 5951 ft | 147 kts | 269° |
| 2026-04-27 23:11 | 29.61910 | -82.88461 | 5950 ft | 148 kts | 269° |
| 2026-04-27 23:11 | 29.61804 | -82.89634 | 5948 ft | 147 kts | 269° |
| 2026-04-27 23:11 | 29.61704 | -82.90805 | 5952 ft | 148 kts | 269° |
| 2026-04-27 23:12 | 29.61600 | -82.91979 | 5950 ft | 148 kts | 268° |
| 2026-04-27 23:12 | 29.61461 | -82.93152 | 5949 ft | 148 kts | 267° |
| 2026-04-27 23:12 | 29.61322 | -82.94318 | 5950 ft | 147 kts | 266° |
| 2026-04-27 23:12 | 29.61145 | -82.95475 | 5948 ft | 147 kts | 263° |
| 2026-04-27 23:13 | 29.60928 | -82.96621 | 5946 ft | 146 kts | 263° |
| 2026-04-27 23:13 | 29.60716 | -82.97762 | 5949 ft | 147 kts | 263° |
| 2026-04-27 23:13 | 29.60501 | -82.98905 | 5949 ft | 146 kts | 263° |
| 2026-04-27 23:13 | 29.60292 | -83.00048 | 5948 ft | 146 kts | 263° |
| 2026-04-27 23:14 | 29.60090 | -83.01176 | 5949 ft | 145 kts | 264° |
| 2026-04-27 23:14 | 29.59963 | -83.02322 | 5952 ft | 143 kts | 272° |
| 2026-04-27 23:14 | 29.59991 | -83.03463 | 5948 ft | 142 kts | 279° |
| 2026-04-27 23:14 | 29.60194 | -83.04560 | 5947 ft | 139 kts | 295° |
| 2026-04-27 23:15 | 29.60700 | -83.05482 | 5948 ft | 136 kts | 315° |
| 2026-04-27 23:15 | 29.61398 | -83.06209 | 5947 ft | 135 kts | 322° |
| 2026-04-27 23:15 | 29.62111 | -83.06911 | 5950 ft | 135 kts | 323° |
| 2026-04-27 23:15 | 29.62834 | -83.07594 | 5949 ft | 135 kts | 324° |
| 2026-04-27 23:16 | 29.63567 | -83.08267 | 5950 ft | 135 kts | 324° |
| 2026-04-27 23:16 | 29.64311 | -83.08903 | 5947 ft | 135 kts | 326° |
| 2026-04-27 23:16 | 29.65066 | -83.09548 | 5947 ft | 135 kts | 326° |
| 2026-04-27 23:16 | 29.65820 | -83.10180 | 5948 ft | 133 kts | 328° |
| 2026-04-27 23:17 | 29.66590 | -83.10761 | 5951 ft | 133 kts | 329° |
| 2026-04-27 23:17 | 29.67367 | -83.11346 | 5947 ft | 134 kts | 329° |
| 2026-04-27 23:17 | 29.68142 | -83.11939 | 5948 ft | 134 kts | 329° |
| 2026-04-27 23:17 | 29.68921 | -83.12531 | 5950 ft | 134 kts | 329° |
| 2026-04-27 23:18 | 29.69699 | -83.13118 | 5950 ft | 134 kts | 329° |
| 2026-04-27 23:18 | 29.70475 | -83.13709 | 5947 ft | 133 kts | 329° |
| 2026-04-27 23:18 | 29.71257 | -83.14280 | 5947 ft | 133 kts | 331° |
| 2026-04-27 23:18 | 29.72065 | -83.14800 | 5950 ft | 134 kts | 333° |
| 2026-04-27 23:19 | 29.72883 | -83.15324 | 5946 ft | 135 kts | 333° |
| 2026-04-27 23:19 | 29.73704 | -83.15833 | 5949 ft | 134 kts | 334° |
| 2026-04-27 23:19 | 29.74531 | -83.16337 | 5952 ft | 135 kts | 334° |
| 2026-04-27 23:19 | 29.75354 | -83.16840 | 5952 ft | 136 kts | 334° |
| 2026-04-27 23:20 | 29.76186 | -83.17352 | 5949 ft | 135 kts | 334° |
| 2026-04-27 23:20 | 29.77012 | -83.17857 | 5945 ft | 135 kts | 334° |
| 2026-04-27 23:20 | 29.77840 | -83.18362 | 5947 ft | 134 kts | 334° |
| 2026-04-27 23:20 | 29.78662 | -83.18870 | 5948 ft | 134 kts | 334° |
| 2026-04-27 23:21 | 29.79487 | -83.19376 | 5950 ft | 134 kts | 334° |
| 2026-04-27 23:21 | 29.80310 | -83.19882 | 5951 ft | 133 kts | 334° |
| 2026-04-27 23:21 | 29.81121 | -83.20401 | 5953 ft | 134 kts | 331° |
| 2026-04-27 23:21 | 29.81912 | -83.20971 | 5954 ft | 135 kts | 330° |
| 2026-04-27 23:22 | 29.82694 | -83.21564 | 5950 ft | 134 kts | 328° |
| 2026-04-27 23:22 | 29.83463 | -83.22175 | 5949 ft | 134 kts | 328° |
| 2026-04-27 23:22 | 29.84231 | -83.22786 | 5950 ft | 134 kts | 328° |
| 2026-04-27 23:22 | 29.85000 | -83.23395 | 5949 ft | 134 kts | 328° |
| 2026-04-27 23:23 | 29.85772 | -83.24004 | 5950 ft | 134 kts | 328° |
| 2026-04-27 23:23 | 29.86542 | -83.24613 | 5950 ft | 134 kts | 328° |
| 2026-04-27 23:23 | 29.87311 | -83.25218 | 5951 ft | 133 kts | 328° |
| 2026-04-27 23:23 | 29.88070 | -83.25838 | 5951 ft | 134 kts | 326° |
| 2026-04-27 23:24 | 29.88816 | -83.26475 | 5950 ft | 133 kts | 326° |
| 2026-04-27 23:24 | 29.89563 | -83.27106 | 5947 ft | 133 kts | 326° |
| 2026-04-27 23:24 | 29.90309 | -83.27733 | 5950 ft | 133 kts | 326° |
| 2026-04-27 23:24 | 29.91053 | -83.28360 | 5955 ft | 132 kts | 326° |
| 2026-04-27 23:25 | 29.91800 | -83.28990 | 5957 ft | 133 kts | 326° |
| 2026-04-27 23:25 | 29.92536 | -83.29612 | 5960 ft | 133 kts | 326° |
| 2026-04-27 23:25 | 29.93288 | -83.30240 | 5956 ft | 133 kts | 326° |
| 2026-04-27 23:25 | 29.94037 | -83.30864 | 5956 ft | 133 kts | 326° |
| 2026-04-27 23:26 | 29.94787 | -83.31491 | 5956 ft | 133 kts | 326° |
| 2026-04-27 23:26 | 29.95540 | -83.32117 | 5957 ft | 133 kts | 326° |
| 2026-04-27 23:26 | 29.96294 | -83.32742 | 5959 ft | 133 kts | 326° |
| 2026-04-27 23:26 | 29.97050 | -83.33367 | 5958 ft | 134 kts | 326° |
| 2026-04-27 23:27 | 29.97807 | -83.33994 | 5961 ft | 134 kts | 326° |
| 2026-04-27 23:27 | 29.98564 | -83.34626 | 5958 ft | 134 kts | 326° |
| 2026-04-27 23:27 | 29.99321 | -83.35252 | 5960 ft | 134 kts | 326° |
| 2026-04-27 23:27 | 30.00078 | -83.35876 | 5962 ft | 134 kts | 326° |
| 2026-04-27 23:28 | 30.00836 | -83.36503 | 5964 ft | 134 kts | 326° |
| 2026-04-27 23:28 | 30.01604 | -83.37114 | 5959 ft | 134 kts | 328° |
| 2026-04-27 23:28 | 30.02391 | -83.37707 | 5962 ft | 135 kts | 329° |
| 2026-04-27 23:28 | 30.02917 | -83.38089 | 5962 ft | 135 kts | 329° |
| 2026-04-27 23:29 | 30.03967 | -83.38853 | 5962 ft | 134 kts | 329° |
| 2026-04-27 23:29 | 30.04755 | -83.39428 | 5961 ft | 134 kts | 329° |
| 2026-04-27 23:29 | 30.05543 | -83.40000 | 5962 ft | 133 kts | 329° |
| 2026-04-27 23:29 | 30.06327 | -83.40570 | 5963 ft | 133 kts | 329° |
| 2026-04-27 23:30 | 30.06850 | -83.40949 | 5967 ft | 134 kts | 329° |
| 2026-04-27 23:30 | 30.07640 | -83.41521 | 5962 ft | 133 kts | 329° |
| 2026-04-27 23:30 | 30.08425 | -83.42083 | 5968 ft | 133 kts | 329° |
| 2026-04-27 23:30 | 30.09212 | -83.42650 | 5966 ft | 134 kts | 329° |
| 2026-04-27 23:31 | 30.10002 | -83.43221 | 5967 ft | 134 kts | 329° |
| 2026-04-27 23:31 | 30.10792 | -83.43786 | 5967 ft | 134 kts | 329° |
| 2026-04-27 23:31 | 30.11585 | -83.44350 | 5962 ft | 133 kts | 329° |
| 2026-04-27 23:31 | 30.12373 | -83.44914 | 5965 ft | 134 kts | 329° |
| 2026-04-27 23:32 | 30.13168 | -83.45478 | 5965 ft | 134 kts | 329° |
| 2026-04-27 23:32 | 30.13961 | -83.46044 | 5965 ft | 134 kts | 329° |
| 2026-04-27 23:32 | 30.14755 | -83.46608 | 5964 ft | 134 kts | 329° |
| 2026-04-27 23:32 | 30.15553 | -83.47177 | 5966 ft | 135 kts | 329° |
| 2026-04-27 23:33 | 30.16353 | -83.47747 | 5971 ft | 135 kts | 329° |
| 2026-04-27 23:33 | 30.17157 | -83.48320 | 5964 ft | 136 kts | 329° |
| 2026-04-27 23:33 | 30.17950 | -83.48886 | 5966 ft | 135 kts | 329° |
| 2026-04-27 23:33 | 30.18753 | -83.49460 | 5964 ft | 136 kts | 329° |
| 2026-04-27 23:34 | 30.19550 | -83.50048 | 5966 ft | 136 kts | 326° |
| 2026-04-27 23:34 | 30.20288 | -83.50740 | 5963 ft | 137 kts | 320° |
| 2026-04-27 23:34 | 30.20999 | -83.51459 | 5993 ft | 135 kts | 320° |
| 2026-04-27 23:34 | 30.21708 | -83.52179 | 5992 ft | 136 kts | 320° |
| 2026-04-27 23:35 | 30.22423 | -83.52908 | 5994 ft | 137 kts | 321° |
| 2026-04-27 23:35 | 30.23170 | -83.53597 | 5990 ft | 137 kts | 323° |
| 2026-04-27 23:35 | 30.23922 | -83.54273 | 5987 ft | 137 kts | 323° |
| 2026-04-27 23:35 | 30.24671 | -83.54952 | 5992 ft | 137 kts | 323° |
| 2026-04-27 23:36 | 30.25420 | -83.55628 | 5993 ft | 137 kts | 323° |
| 2026-04-27 23:36 | 30.26172 | -83.56300 | 5990 ft | 137 kts | 323° |
| 2026-04-27 23:36 | 30.26922 | -83.56975 | 5993 ft | 136 kts | 323° |
| 2026-04-27 23:36 | 30.27670 | -83.57650 | 5993 ft | 136 kts | 323° |
| 2026-04-27 23:37 | 30.28415 | -83.58321 | 5995 ft | 135 kts | 323° |
| 2026-04-27 23:37 | 30.29152 | -83.58982 | 5989 ft | 135 kts | 324° |
| 2026-04-27 23:37 | 30.29950 | -83.59553 | 5992 ft | 135 kts | 331° |
| 2026-04-27 23:37 | 30.30776 | -83.60081 | 5995 ft | 135 kts | 331° |
| 2026-04-27 23:38 | 30.31607 | -83.60598 | 5992 ft | 135 kts | 332° |
| 2026-04-27 23:38 | 30.32438 | -83.61115 | 5994 ft | 136 kts | 332° |
| 2026-04-27 23:38 | 30.33275 | -83.61632 | 5993 ft | 137 kts | 332° |
| 2026-04-27 23:38 | 30.34117 | -83.62148 | 5991 ft | 137 kts | 332° |
| 2026-04-27 23:39 | 30.34953 | -83.62662 | 5993 ft | 136 kts | 332° |
| 2026-04-27 23:39 | 30.35789 | -83.63175 | 5990 ft | 136 kts | 332° |
| 2026-04-27 23:39 | 30.36627 | -83.63685 | 5995 ft | 136 kts | 332° |
| 2026-04-27 23:39 | 30.37467 | -83.64192 | 5993 ft | 136 kts | 332° |
| 2026-04-27 23:40 | 30.38283 | -83.64747 | 5995 ft | 136 kts | 328° |
| 2026-04-27 23:40 | 30.39091 | -83.65326 | 5991 ft | 137 kts | 328° |
| 2026-04-27 23:40 | 30.39895 | -83.65913 | 5994 ft | 137 kts | 327° |
| 2026-04-27 23:40 | 30.40689 | -83.66530 | 5994 ft | 137 kts | 326° |
| 2026-04-27 23:41 | 30.41483 | -83.67143 | 5997 ft | 137 kts | 326° |
| 2026-04-27 23:41 | 30.42278 | -83.67760 | 5994 ft | 138 kts | 326° |
| 2026-04-27 23:41 | 30.43057 | -83.68371 | 5997 ft | 138 kts | 324° |
| 2026-04-27 23:41 | 30.43827 | -83.69029 | 5995 ft | 137 kts | 323° |
| 2026-04-27 23:42 | 30.44592 | -83.69692 | 5994 ft | 137 kts | 323° |
| 2026-04-27 23:42 | 30.45353 | -83.70354 | 5994 ft | 136 kts | 323° |
| 2026-04-27 23:42 | 30.46116 | -83.71015 | 5996 ft | 136 kts | 323° |
| 2026-04-27 23:42 | 30.46875 | -83.71674 | 5997 ft | 137 kts | 323° |
| 2026-04-27 23:43 | 30.47640 | -83.72334 | 5996 ft | 137 kts | 323° |
| 2026-04-27 23:43 | 30.48385 | -83.73015 | 5994 ft | 136 kts | 321° |
| 2026-04-27 23:43 | 30.49130 | -83.73701 | 5994 ft | 136 kts | 321° |
| 2026-04-27 23:43 | 30.49877 | -83.74372 | 6000 ft | 136 kts | 323° |
| 2026-04-27 23:44 | 30.50649 | -83.75009 | 5999 ft | 136 kts | 324° |
| 2026-04-27 23:44 | 30.51418 | -83.75639 | 5998 ft | 137 kts | 324° |
| 2026-04-27 23:44 | 30.52195 | -83.76276 | 5998 ft | 137 kts | 324° |
| 2026-04-27 23:44 | 30.52976 | -83.76910 | 5996 ft | 137 kts | 326° |
| 2026-04-27 23:45 | 30.53791 | -83.77486 | 5998 ft | 138 kts | 329° |
| 2026-04-27 23:45 | 30.54624 | -83.78032 | 5999 ft | 138 kts | 333° |
| 2026-04-27 23:45 | 30.55520 | -83.78435 | 6001 ft | 138 kts | 340° |
| 2026-04-27 23:45 | 30.56431 | -83.78790 | 6004 ft | 138 kts | 341° |
| 2026-04-27 23:46 | 30.57356 | -83.79118 | 5915 ft | 142 kts | 342° |
| 2026-04-27 23:46 | 30.58316 | -83.79456 | 5775 ft | 145 kts | 342° |
| 2026-04-27 23:46 | 30.59290 | -83.79797 | 5628 ft | 147 kts | 342° |
| 2026-04-27 23:46 | 30.60274 | -83.80142 | 5483 ft | 148 kts | 342° |
| 2026-04-27 23:47 | 30.61263 | -83.80487 | 5336 ft | 149 kts | 342° |
| 2026-04-27 23:47 | 30.62243 | -83.80829 | 5192 ft | 149 kts | 342° |
| 2026-04-27 23:47 | 30.63247 | -83.81146 | 5046 ft | 150 kts | 346° |
| 2026-04-27 23:47 | 30.64265 | -83.81430 | 4903 ft | 151 kts | 345° |
| 2026-04-27 23:48 | 30.65285 | -83.81722 | 4757 ft | 151 kts | 346° |
| 2026-04-27 23:48 | 30.66308 | -83.82026 | 4604 ft | 152 kts | 346° |
| 2026-04-27 23:48 | 30.67329 | -83.82353 | 4454 ft | 152 kts | 344° |
| 2026-04-27 23:48 | 30.68349 | -83.82693 | 4306 ft | 153 kts | 344° |
| 2026-04-27 23:49 | 30.69362 | -83.83036 | 4159 ft | 151 kts | 345° |
| 2026-04-27 23:49 | 30.70361 | -83.83382 | 4000 ft | 149 kts | 345° |
| 2026-04-27 23:49 | 30.71345 | -83.83730 | 3851 ft | 147 kts | 345° |
| 2026-04-27 23:49 | 30.72323 | -83.84084 | 3704 ft | 147 kts | 344° |
| 2026-04-27 23:50 | 30.73295 | -83.84436 | 3552 ft | 146 kts | 345° |
| 2026-04-27 23:50 | 30.74209 | -83.84799 | 3622 ft | 131 kts | 342° |
| 2026-04-27 23:50 | 30.75079 | -83.85211 | 3399 ft | 144 kts | 340° |
| 2026-04-27 23:50 | 30.76031 | -83.85664 | 3104 ft | 153 kts | 340° |
| 2026-04-27 23:51 | 30.76970 | -83.86155 | 2885 ft | 141 kts | 338° |
| 2026-04-27 23:51 | 30.77824 | -83.86633 | 2777 ft | 134 kts | 337° |
| 2026-04-27 23:51 | 30.78652 | -83.87093 | 2702 ft | 129 kts | 338° |
| 2026-04-27 23:51 | 30.79485 | -83.87486 | 2573 ft | 131 kts | 342° |
| 2026-04-27 23:52 | 30.80363 | -83.87884 | 2357 ft | 136 kts | 342° |
| 2026-04-27 23:52 | 30.81236 | -83.88249 | 2287 ft | 130 kts | 343° |
| 2026-04-27 23:52 | 30.82081 | -83.88624 | 2123 ft | 132 kts | 341° |
| 2026-04-27 23:52 | 30.82876 | -83.89161 | 1952 ft | 130 kts | 328° |
| 2026-04-27 23:53 | 30.83618 | -83.89762 | 1818 ft | 131 kts | 329° |
| 2026-04-27 23:53 | 30.84388 | -83.90320 | 1677 ft | 128 kts | 333° |
| 2026-04-27 23:53 | 30.85122 | -83.90832 | 1520 ft | 118 kts | 333° |
| 2026-04-27 23:53 | 30.85819 | -83.91285 | 1285 ft | 114 kts | 339° |
| 2026-04-27 23:54 | 30.86475 | -83.91434 | 1348 ft | 79 kts | 15° |
| 2026-04-27 23:54 | 30.86948 | -83.91202 | 1221 ft | 78 kts | 36° |
| 2026-04-27 23:54 | 30.87387 | -83.90832 | 1113 ft | 79 kts | 43° |
| 2026-04-27 23:54 | 30.87847 | -83.90388 | 843 ft | 90 kts | 45° |
| 2026-04-27 23:55 | 30.88319 | -83.89925 | 671 ft | 87 kts | 43° |
| 2026-04-27 23:55 | 30.88739 | -83.89525 | 544 ft | 73 kts | 44° |
| 2026-04-27 23:55 | 30.89115 | -83.89159 | 408 ft | 71 kts | 43° |
| 2026-04-27 23:55 | 30.89472 | -83.88803 | 306 ft | 63 kts | 41° |
| 2026-04-27 23:56 | 30.89786 | -83.88504 | 254 ft | 51 kts | 45° |
| 2026-04-27 23:56 | 30.89997 | -83.88289 | 241 ft | 25 kts | 37° |
| 2026-04-27 23:56 | 30.90094 | -83.88206 | 240 ft | 6 kts | 251° |
| 2026-04-27 23:56 | 30.90055 | -83.88244 | 241 ft | 11 kts | 208° |
| 2026-04-27 23:57 | 30.89978 | -83.88287 | 241 ft | 11 kts | 160° |
| 2026-04-27 23:57 | 30.89919 | -83.88208 | 240 ft | 14 kts | 124° |
| 2026-04-27 23:57 | 30.89932 | -83.88136 | 240 ft | 10 kts | 41° |
| 2026-04-27 23:57 | 30.89943 | -83.88078 | 240 ft | 4 kts | 120° |
| 2026-04-27 23:58 | 30.89940 | -83.88073 | 240 ft | 0 kts | 126° |